Archival Weather

Half Moon Bay

Half Moon Bay, California (KHAF)

Report from: Saturday, September 30, 2023 3:15 AM PDT
Current time: Monday, June 17, 2024 3:19 AM PDT

Current weather – Weather history – Daily summaries
Weather forecast

Temperature15.0°C (59.0°F)
Dew point14.0°C (57.2°F)
Winds 9 kts (4.6 m/s, 10.4 mph) Northwest (320°)
Visibility8 mi. (12.9 km)
Clouds Ceiling: Overcast 1,400 ft. (427 m)
Altimeter29.79 in.Hg (1009 mB)
Relative humidity94 %
Density altitude372 ft. (113 m)
Remarks Fully automated report
Automated weather observing station with precipitation discriminator
Flight conditions Marginal Visual Meteorological Conditions
Raw dataKHAF 301015Z AUTO 32009KT 8SM OVC014 15/14 A2979 RMK AO2
An error has occurred. This application may no longer respond until reloaded. Reload 🗙